createdAt,value
2018-09-12T00:00:15.201Z,13.40
2018-09-12T00:02:42.945Z,13.40
2018-09-12T00:05:10.706Z,13.40
2018-09-12T00:07:38.567Z,13.30
2018-09-12T00:10:06.335Z,13.30
2018-09-12T00:12:34.292Z,13.30
2018-09-12T00:15:02.052Z,13.20
2018-09-12T00:17:29.792Z,13.20
2018-09-12T00:19:57.535Z,13.20
2018-09-12T00:22:25.480Z,13.10
2018-09-12T00:24:53.423Z,13.10
2018-09-12T00:27:21.183Z,13.00
2018-09-12T00:29:48.875Z,13.00
2018-09-12T00:32:16.734Z,13.10
2018-09-12T00:34:44.408Z,13.10
2018-09-12T00:37:12.211Z,13.10
2018-09-12T00:39:40.049Z,13.10
2018-09-12T00:42:08.049Z,13.20
2018-09-12T00:44:35.780Z,13.30
2018-09-12T00:47:03.831Z,13.40
2018-09-12T00:49:31.528Z,13.40
2018-09-12T00:51:59.318Z,13.40
2018-09-12T00:54:27.012Z,13.30
2018-09-12T00:56:55.224Z,13.30
2018-09-12T00:59:22.986Z,13.20
2018-09-12T01:01:50.753Z,13.10
2018-09-12T01:04:18.495Z,13.20
2018-09-12T01:06:46.516Z,13.20
2018-09-12T01:09:14.469Z,13.20
2018-09-12T01:11:42.167Z,13.20
2018-09-12T01:14:10.082Z,13.20
2018-09-12T01:16:38.056Z,13.30
2018-09-12T01:19:05.971Z,13.20
2018-09-12T01:21:33.826Z,13.10
2018-09-12T01:24:01.540Z,13.10
2018-09-12T01:26:29.372Z,13.10
2018-09-12T01:28:57.315Z,13.10
2018-09-12T01:31:25.072Z,13.10
2018-09-12T01:33:52.869Z,13.10
2018-09-12T01:36:20.600Z,13.10
2018-09-12T01:38:48.553Z,13.10
2018-09-12T01:41:16.711Z,13.00
2018-09-12T01:43:44.495Z,13.00
2018-09-12T01:46:12.497Z,13.10
2018-09-12T01:48:40.323Z,13.20
2018-09-12T01:51:08.096Z,13.20
2018-09-12T01:53:36.096Z,13.20
2018-09-12T01:56:03.839Z,13.20
2018-09-12T01:58:31.673Z,13.30
2018-09-12T02:00:59.681Z,13.40
2018-09-12T02:03:27.447Z,13.50
2018-09-12T02:05:55.224Z,13.70
2018-09-12T02:08:23.199Z,13.70
2018-09-12T02:10:51.239Z,13.70
2018-09-12T02:13:18.979Z,13.70
2018-09-12T02:15:46.796Z,13.70
2018-09-12T02:18:14.601Z,13.60
2018-09-12T02:20:42.508Z,13.60
2018-09-12T02:23:10.303Z,13.80
2018-09-12T02:25:38.226Z,13.90
2018-09-12T02:28:05.995Z,14.10
2018-09-12T02:30:34.001Z,14.30
2018-09-12T02:33:01.805Z,14.40
2018-09-12T02:35:29.761Z,14.50
2018-09-12T02:37:57.482Z,14.50
2018-09-12T02:40:25.425Z,14.50
2018-09-12T02:42:53.135Z,14.60
2018-09-12T02:45:20.830Z,14.70
2018-09-12T02:47:48.811Z,14.80
2018-09-12T02:50:16.829Z,14.70
2018-09-12T02:52:44.663Z,14.50
2018-09-12T02:55:13.072Z,14.40
2018-09-12T02:57:40.780Z,14.40
2018-09-12T03:00:09.339Z,14.40
2018-09-12T03:02:37.204Z,14.30
2018-09-12T03:05:05.560Z,14.20
2018-09-12T03:07:33.279Z,14.10
2018-09-12T03:10:01.064Z,14.00
2018-09-12T03:12:28.773Z,13.90
2018-09-12T03:14:56.489Z,13.70
2018-09-12T03:17:24.197Z,13.60
2018-09-12T03:19:52.347Z,13.50
2018-09-12T03:22:20.043Z,13.50
2018-09-12T03:24:47.886Z,13.40
2018-09-12T03:27:15.568Z,13.30
2018-09-12T03:29:43.318Z,13.30
2018-09-12T03:32:11.055Z,13.20
2018-09-12T03:34:38.829Z,13.10
2018-09-12T03:37:06.636Z,13.20
2018-09-12T03:39:34.528Z,13.20
2018-09-12T03:42:02.382Z,13.10
2018-09-12T03:44:30.243Z,13.10
2018-09-12T03:46:58.219Z,13.30
2018-09-12T03:49:25.942Z,13.40
2018-09-12T03:51:53.615Z,13.40
2018-09-12T03:54:21.489Z,13.40
2018-09-12T03:56:49.192Z,13.40
2018-09-12T03:59:16.991Z,13.30
2018-09-12T04:01:44.707Z,13.20
2018-09-12T04:04:12.624Z,13.10
2018-09-12T04:06:40.343Z,13.10
2018-09-12T04:09:08.836Z,13.20
2018-09-12T04:11:36.619Z,13.10
2018-09-12T04:14:04.868Z,13.10
2018-09-12T04:16:32.609Z,13.30
2018-09-12T04:19:00.331Z,13.40
2018-09-12T04:21:28.031Z,13.40
2018-09-12T04:23:55.833Z,13.40
2018-09-12T04:26:23.668Z,13.30
2018-09-12T04:28:51.571Z,13.20
2018-09-12T04:31:19.320Z,13.10
2018-09-12T04:33:47.283Z,13.10
2018-09-12T04:36:15.099Z,13.10
2018-09-12T04:38:42.855Z,13.00
2018-09-12T04:41:11.028Z,12.90
2018-09-12T04:43:39.152Z,12.80
2018-09-12T04:46:07.295Z,12.70
2018-09-12T04:48:35.555Z,12.60
2018-09-12T04:51:04.335Z,12.60
2018-09-12T04:53:32.488Z,12.60
2018-09-12T04:56:01.037Z,12.70
2018-09-12T04:58:28.816Z,12.60
2018-09-12T05:00:56.643Z,12.60
2018-09-12T05:03:24.340Z,12.60
2018-09-12T05:05:52.622Z,12.50
2018-09-12T05:08:20.489Z,12.50
2018-09-12T05:10:48.399Z,12.50
2018-09-12T05:13:16.327Z,12.50
2018-09-12T05:15:44.242Z,12.50
2018-09-12T05:18:11.930Z,12.50
2018-09-12T05:20:39.725Z,12.60
2018-09-12T05:23:07.600Z,12.60
2018-09-12T05:25:35.519Z,12.70
2018-09-12T05:28:03.530Z,12.70
2018-09-12T05:30:31.297Z,12.70
2018-09-12T05:32:59.004Z,12.70
2018-09-12T05:35:26.809Z,12.80
2018-09-12T05:37:54.608Z,12.90
2018-09-12T05:40:22.359Z,13.00
2018-09-12T05:42:50.272Z,13.10
2018-09-12T05:45:18.086Z,13.20
2018-09-12T05:47:46.088Z,13.50
2018-09-12T05:50:14.095Z,13.80
2018-09-12T05:52:41.787Z,14.30
2018-09-12T05:55:09.556Z,15.30
2018-09-12T05:57:57.579Z,16.30
2018-09-12T06:00:55.641Z,17.20
2018-09-12T06:03:24.088Z,18.10
2018-09-12T06:05:51.853Z,18.90
2018-09-12T06:08:19.757Z,19.70
2018-09-12T06:10:47.474Z,19.90
2018-09-12T06:13:15.388Z,20.20
2018-09-12T06:15:43.272Z,20.40
2018-09-12T06:18:11.335Z,20.90
2018-09-12T06:20:39.255Z,21.50
2018-09-12T06:23:07.071Z,22.50
2018-09-12T06:25:34.947Z,22.90
2018-09-12T06:28:02.787Z,23.50
2018-09-12T06:30:30.552Z,24.10
2018-09-12T06:32:58.370Z,24.70
2018-09-12T06:35:26.095Z,24.40
2018-09-12T06:37:53.884Z,24.40
2018-09-12T06:40:21.622Z,24.20
2018-09-12T06:42:49.331Z,23.80
2018-09-12T06:45:17.091Z,23.80
2018-09-12T06:47:44.884Z,23.80
2018-09-12T06:50:12.617Z,23.50
2018-09-12T06:52:40.333Z,23.80
2018-09-12T06:55:08.103Z,24.00
2018-09-12T06:57:35.923Z,24.00
2018-09-12T07:00:04.499Z,23.60
2018-09-12T07:02:32.203Z,24.20
2018-09-12T07:04:59.920Z,24.80
2018-09-12T07:07:27.719Z,25.40
2018-09-12T07:09:55.479Z,26.10
2018-09-12T07:12:23.316Z,26.90
2018-09-12T07:14:51.231Z,26.60
2018-09-12T07:17:18.951Z,27.10
2018-09-12T07:19:46.760Z,28.00
2018-09-12T07:22:14.657Z,28.70
2018-09-12T07:24:42.423Z,28.70
2018-09-12T07:27:10.219Z,28.20
2018-09-12T07:29:38.001Z,28.60
2018-09-12T07:32:05.848Z,28.10
2018-09-12T07:34:33.656Z,28.00
2018-09-12T07:37:01.437Z,28.80
2018-09-12T07:39:29.372Z,29.80
2018-09-12T07:41:57.159Z,30.50
2018-09-12T07:44:24.920Z,30.50
2018-09-12T07:46:52.807Z,30.40
2018-09-12T07:49:20.571Z,30.60
2018-09-12T07:51:48.576Z,29.80
2018-09-12T07:54:16.402Z,29.30
2018-09-12T07:56:44.165Z,29.50
2018-09-12T07:59:11.880Z,29.60
2018-09-12T08:01:39.763Z,29.40
2018-09-12T08:04:07.654Z,29.40
2018-09-12T08:06:35.472Z,29.50
2018-09-12T08:09:06.191Z,29.30
2018-09-12T08:11:34.111Z,29.70
2018-09-12T08:14:01.998Z,29.90
2018-09-12T08:16:29.735Z,30.00
2018-09-12T08:18:57.564Z,30.90
2018-09-12T08:21:25.387Z,31.00
2018-09-12T08:23:53.111Z,30.80
2018-09-12T08:26:21.056Z,30.90
2018-09-12T08:28:48.732Z,31.50
2018-09-12T08:31:16.439Z,31.70
2018-09-12T08:33:44.500Z,32.00
2018-09-12T08:36:13.486Z,32.30
2018-09-12T08:38:41.365Z,31.60
2018-09-12T08:41:09.147Z,32.10
2018-09-12T08:43:37.116Z,32.40
2018-09-12T08:46:04.905Z,32.60
2018-09-12T08:48:32.719Z,33.30
2018-09-12T08:51:07.213Z,33.30
2018-09-12T08:53:35.171Z,33.10
2018-09-12T08:56:02.966Z,33.20
2018-09-12T08:58:30.707Z,33.50
2018-09-12T09:00:58.572Z,33.00
2018-09-12T09:03:26.831Z,33.60
2018-09-12T09:05:54.547Z,34.00
2018-09-12T09:08:22.375Z,33.80
2018-09-12T09:10:50.335Z,33.80
2018-09-12T09:13:18.126Z,33.80
2018-09-12T09:15:45.871Z,33.90
2018-09-12T09:18:13.628Z,33.50
2018-09-12T09:20:41.404Z,33.60
2018-09-12T09:23:09.207Z,33.80
2018-09-12T09:25:36.995Z,34.50
2018-09-12T09:28:04.951Z,34.80
2018-09-12T09:30:33.451Z,35.10
2018-09-12T09:33:01.227Z,35.40
2018-09-12T09:35:29.598Z,35.60
2018-09-12T09:37:57.187Z,34.90
2018-09-12T09:40:24.848Z,34.40
2018-09-12T09:42:52.822Z,34.30
2018-09-12T09:45:20.507Z,35.00
2018-09-12T09:47:48.406Z,36.20
2018-09-12T09:50:16.135Z,36.90
2018-09-12T09:52:43.791Z,37.20
2018-09-12T09:55:11.553Z,36.80
2018-09-12T09:57:39.330Z,36.60
2018-09-12T10:00:14.449Z,36.80
2018-09-12T10:02:46.920Z,36.70
2018-09-12T10:05:20.541Z,37.20
2018-09-12T10:07:52.844Z,37.20
2018-09-12T10:10:20.591Z,37.40
2018-09-12T10:12:48.549Z,37.90
2018-09-12T10:15:16.230Z,37.40
2018-09-12T10:17:43.907Z,37.60
2018-09-12T10:20:11.567Z,37.70
2018-09-12T10:22:39.456Z,37.20
2018-09-12T10:25:07.239Z,37.00
2018-09-12T10:27:35.153Z,36.40
2018-09-12T10:30:03.460Z,36.80
2018-09-12T10:32:32.419Z,37.20
2018-09-12T10:35:00.271Z,37.40
2018-09-12T10:37:28.098Z,37.80
2018-09-12T10:39:55.762Z,38.30
2018-09-12T10:42:23.488Z,38.10
2018-09-12T10:44:51.236Z,38.10
2018-09-12T10:47:18.907Z,38.00
2018-09-12T10:49:46.650Z,37.20
2018-09-12T10:52:14.550Z,37.60
2018-09-12T10:54:42.203Z,38.00
2018-09-12T10:57:09.966Z,37.60
2018-09-12T10:59:37.914Z,37.90
2018-09-12T11:02:05.659Z,38.00
2018-09-12T11:04:33.491Z,37.30
2018-09-12T11:07:01.413Z,36.50
2018-09-12T11:09:29.251Z,35.50
2018-09-12T11:11:57.032Z,34.80
2018-09-12T11:14:24.692Z,33.80
2018-09-12T11:16:52.544Z,33.20
2018-09-12T11:19:20.380Z,32.60
2018-09-12T11:21:48.059Z,32.10
2018-09-12T11:24:15.725Z,31.90
2018-09-12T11:26:43.470Z,31.70
2018-09-12T11:29:11.235Z,31.30
2018-09-12T11:31:38.920Z,31.10
2018-09-12T11:34:06.634Z,31.40
2018-09-12T11:36:34.722Z,31.20
2018-09-12T11:39:02.611Z,31.20
2018-09-12T11:41:30.457Z,31.30
2018-09-12T11:43:58.356Z,31.20
2018-09-12T11:46:26.188Z,31.10
2018-09-12T11:48:53.903Z,30.90
2018-09-12T11:51:21.542Z,30.80
2018-09-12T11:53:49.227Z,30.80
2018-09-12T11:56:16.865Z,30.90
2018-09-12T11:58:44.531Z,31.10
2018-09-12T12:01:12.197Z,31.20
2018-09-12T12:03:39.924Z,31.30
2018-09-12T12:06:07.689Z,31.40
2018-09-12T12:08:35.471Z,31.30
2018-09-12T12:11:03.347Z,31.40
2018-09-12T12:13:31.031Z,31.60
2018-09-12T12:15:58.883Z,31.50
2018-09-12T12:18:26.557Z,31.50
2018-09-12T12:20:54.727Z,31.70
2018-09-12T12:23:22.385Z,31.20
2018-09-12T12:25:50.068Z,31.30
2018-09-12T12:28:17.996Z,31.40
2018-09-12T12:30:45.852Z,31.40
2018-09-12T12:33:13.671Z,31.40
2018-09-12T12:35:41.369Z,31.30
2018-09-12T12:38:09.300Z,31.30
2018-09-12T12:40:36.980Z,31.20
2018-09-12T12:43:04.788Z,31.30
2018-09-12T12:45:32.494Z,31.20
2018-09-12T12:48:00.216Z,31.20
2018-09-12T12:50:27.901Z,31.10
2018-09-12T12:52:55.624Z,31.00
2018-09-12T12:55:23.808Z,31.00
2018-09-12T12:57:51.564Z,31.00
2018-09-12T13:00:19.395Z,31.10
2018-09-12T13:02:47.084Z,31.30
2018-09-12T13:05:14.963Z,31.30
2018-09-12T13:07:42.628Z,31.10
2018-09-12T13:10:10.469Z,31.20
2018-09-12T13:12:38.143Z,31.30
2018-09-12T13:15:05.888Z,31.40
2018-09-12T13:17:33.736Z,31.30
2018-09-12T13:20:01.544Z,31.10
2018-09-12T13:22:29.195Z,31.20
2018-09-12T13:24:57.013Z,31.10
2018-09-12T13:27:24.865Z,30.90
2018-09-12T13:29:52.472Z,31.10
2018-09-12T13:32:20.329Z,31.10
2018-09-12T13:34:48.055Z,31.00
2018-09-12T13:37:15.862Z,31.10
2018-09-12T13:39:43.754Z,31.10
2018-09-12T13:42:11.436Z,31.10
2018-09-12T13:44:39.331Z,31.10
2018-09-12T13:47:07.004Z,31.10
2018-09-12T13:49:34.755Z,31.10
2018-09-12T13:52:03.747Z,31.10
2018-09-12T13:54:31.404Z,31.00
2018-09-12T13:56:59.082Z,31.00
2018-09-12T13:59:26.824Z,31.00
2018-09-12T14:01:54.563Z,31.00
2018-09-12T14:04:22.255Z,31.00
2018-09-12T14:06:50.084Z,31.00
2018-09-12T14:09:17.896Z,30.90
2018-09-12T14:11:45.740Z,30.90
2018-09-12T14:14:13.619Z,30.90
2018-09-12T14:16:41.344Z,31.00
2018-09-12T14:19:09.055Z,31.00
2018-09-12T14:21:36.955Z,31.10
2018-09-12T14:24:04.681Z,31.20
2018-09-12T14:26:32.492Z,31.10
2018-09-12T14:29:00.167Z,31.10
2018-09-12T14:31:28.218Z,31.10
2018-09-12T14:33:56.069Z,31.10
2018-09-12T14:36:23.771Z,31.00
2018-09-12T14:38:51.542Z,30.90
2018-09-12T14:41:19.271Z,30.80
2018-09-12T14:43:46.938Z,30.80
2018-09-12T14:46:14.711Z,30.70
2018-09-12T14:48:42.806Z,30.70
2018-09-12T14:51:10.660Z,30.60
2018-09-12T14:53:38.738Z,30.60
2018-09-12T14:56:06.434Z,30.50
2018-09-12T14:58:34.170Z,30.50
2018-09-12T15:01:01.856Z,30.50
2018-09-12T15:03:29.647Z,30.50
2018-09-12T15:05:57.589Z,30.60
2018-09-12T15:08:25.361Z,30.70
2018-09-12T15:10:53.114Z,30.70
2018-09-12T15:13:21.051Z,30.80
2018-09-12T15:15:48.703Z,30.80
2018-09-12T15:18:16.355Z,30.90
2018-09-12T15:20:44.056Z,30.90
2018-09-12T15:23:11.843Z,30.90
2018-09-12T15:25:39.571Z,30.90
2018-09-12T15:28:07.287Z,30.80
2018-09-12T15:30:34.940Z,30.90
2018-09-12T15:33:03.096Z,30.90
2018-09-12T15:35:30.983Z,30.80
2018-09-12T15:37:59.055Z,30.70
2018-09-12T15:40:27.001Z,30.50
2018-09-12T15:42:55.080Z,30.30
2018-09-12T15:45:22.811Z,30.10
2018-09-12T15:47:50.605Z,30.00
2018-09-12T15:50:18.348Z,30.00
2018-09-12T15:52:46.335Z,29.90
2018-09-12T15:55:14.484Z,29.90
2018-09-12T15:57:42.446Z,29.70
2018-09-12T16:00:10.227Z,29.70
2018-09-12T16:02:38.427Z,29.60
2018-09-12T16:05:06.547Z,29.50
2018-09-12T16:07:34.377Z,29.50
2018-09-12T16:10:02.109Z,29.50
2018-09-12T16:12:29.943Z,29.50
2018-09-12T16:14:57.820Z,29.50
2018-09-12T16:17:25.671Z,29.40
2018-09-12T16:19:53.620Z,29.40
2018-09-12T16:22:21.414Z,29.20
2018-09-12T16:24:49.182Z,29.10
2018-09-12T16:27:16.904Z,29.00
2018-09-12T16:29:44.586Z,28.90
2018-09-12T16:32:13.071Z,28.90
2018-09-12T16:34:40.876Z,28.80
2018-09-12T16:37:08.922Z,28.70
2018-09-12T16:39:36.762Z,28.60
2018-09-12T16:42:04.736Z,28.60
2018-09-12T16:44:32.919Z,28.60
2018-09-12T16:47:00.888Z,28.60
2018-09-12T16:49:28.615Z,28.70
2018-09-12T16:51:56.543Z,28.70
2018-09-12T16:54:24.394Z,28.60
2018-09-12T16:56:52.506Z,28.70
2018-09-12T16:59:20.312Z,28.70
2018-09-12T17:01:48.167Z,28.60
2018-09-12T17:04:15.889Z,28.50
2018-09-12T17:06:43.684Z,28.30
2018-09-12T17:09:11.805Z,28.20
2018-09-12T17:11:39.530Z,28.00
2018-09-12T17:14:07.398Z,27.80
2018-09-12T17:16:35.368Z,27.70
2018-09-12T17:19:03.289Z,27.50
2018-09-12T17:21:32.372Z,27.30
2018-09-12T17:24:00.528Z,27.10
2018-09-12T17:26:28.502Z,26.90
2018-09-12T17:28:56.399Z,26.70
2018-09-12T17:31:24.202Z,26.50
2018-09-12T17:33:52.085Z,26.40
2018-09-12T17:36:20.738Z,26.10
2018-09-12T17:38:48.451Z,25.90
2018-09-12T17:41:17.239Z,25.70
2018-09-12T17:43:45.008Z,25.60
2018-09-12T17:46:26.058Z,25.40
2018-09-12T17:49:33.034Z,25.20
2018-09-12T17:52:06.806Z,25.00
2018-09-12T17:54:34.579Z,24.80
2018-09-12T17:57:03.009Z,24.60
2018-09-12T17:59:30.766Z,24.40
2018-09-12T18:01:58.818Z,24.30
2018-09-12T18:04:27.086Z,24.20
2018-09-12T18:06:55.011Z,24.10
2018-09-12T18:09:22.979Z,23.90
2018-09-12T18:11:50.922Z,23.80
2018-09-12T18:14:18.698Z,23.70
2018-09-12T18:16:46.639Z,23.60
2018-09-12T18:19:14.491Z,23.50
2018-09-12T18:21:42.419Z,23.30
2018-09-12T18:24:10.129Z,23.20
2018-09-12T18:26:37.867Z,23.10
2018-09-12T18:29:05.759Z,22.90
2018-09-12T18:31:33.790Z,22.80
2018-09-12T18:34:01.582Z,22.70
2018-09-12T18:36:29.508Z,22.50
2018-09-12T18:38:57.354Z,22.40
2018-09-12T18:41:25.765Z,22.30
2018-09-12T18:43:53.527Z,22.20
2018-09-12T18:46:21.463Z,22.10
2018-09-12T18:48:49.708Z,22.00
2018-09-12T18:51:17.422Z,21.90
2018-09-12T18:53:45.454Z,21.80
2018-09-12T18:56:13.815Z,21.70
2018-09-12T18:58:42.708Z,21.60
2018-09-12T19:01:10.393Z,21.50
2018-09-12T19:03:38.269Z,21.50
2018-09-12T19:06:06.322Z,21.50
2018-09-12T19:08:34.094Z,21.50
2018-09-12T19:11:02.019Z,21.40
2018-09-12T19:13:29.951Z,21.20
2018-09-12T19:15:57.870Z,21.20
2018-09-12T19:18:25.767Z,21.00
2018-09-12T19:20:53.421Z,20.90
2018-09-12T19:23:21.448Z,20.80
2018-09-12T19:25:49.216Z,20.70
2018-09-12T19:28:17.190Z,20.70
2018-09-12T19:30:45.154Z,20.60
2018-09-12T19:33:13.242Z,20.50
2018-09-12T19:35:41.076Z,20.50
2018-09-12T19:38:09.008Z,20.50
2018-09-12T19:40:36.890Z,20.60
2018-09-12T19:43:04.824Z,20.60
2018-09-12T19:45:33.697Z,20.70
2018-09-12T19:48:01.763Z,20.80
2018-09-12T19:50:29.578Z,20.90
2018-09-12T19:52:57.339Z,20.80
2018-09-12T19:55:25.459Z,20.80
2018-09-12T19:57:53.406Z,20.70
2018-09-12T20:00:23.682Z,20.70
2018-09-12T20:02:51.815Z,20.60
2018-09-12T20:05:19.671Z,20.70
2018-09-12T20:07:47.520Z,20.70
2018-09-12T20:10:15.435Z,20.70
2018-09-12T20:12:43.307Z,20.60
2018-09-12T20:15:11.207Z,20.70
2018-09-12T20:17:39.114Z,20.70
2018-09-12T20:20:07.056Z,20.80
2018-09-12T20:22:34.898Z,20.90
2018-09-12T20:25:03.160Z,21.30
2018-09-12T20:27:31.899Z,21.60
2018-09-12T20:29:59.883Z,21.70
2018-09-12T20:32:27.803Z,21.90
2018-09-12T20:34:55.551Z,22.10
2018-09-12T20:37:24.128Z,22.40
2018-09-12T20:39:52.268Z,22.60
2018-09-12T20:42:20.044Z,22.80
2018-09-12T20:44:50.022Z,22.80
2018-09-12T20:47:17.895Z,22.80
2018-09-12T20:49:46.088Z,22.60
2018-09-12T20:52:14.291Z,22.30
2018-09-12T20:54:42.210Z,22.20
2018-09-12T20:57:10.117Z,22.20
2018-09-12T20:59:38.299Z,22.00
2018-09-12T21:02:06.958Z,21.70
2018-09-12T21:04:34.959Z,21.40
2018-09-12T21:07:03.097Z,21.30
2018-09-12T21:09:31.167Z,21.10
2018-09-12T21:11:59.011Z,21.10
2018-09-12T21:14:27.092Z,20.90
2018-09-12T21:16:54.847Z,20.90
2018-09-12T21:19:22.963Z,20.80
2018-09-12T21:21:50.970Z,20.80
2018-09-12T21:24:18.768Z,20.90
2018-09-12T21:26:46.929Z,20.90
2018-09-12T21:29:14.819Z,20.80
2018-09-12T21:31:42.704Z,20.90
2018-09-12T21:34:11.387Z,21.00
2018-09-12T21:36:39.137Z,21.00
2018-09-12T21:39:09.008Z,21.00
2018-09-12T21:41:37.095Z,21.00
2018-09-12T21:44:04.967Z,20.90
2018-09-12T21:46:33.139Z,20.90
2018-09-12T21:49:00.895Z,20.80
2018-09-12T21:51:29.032Z,20.80
2018-09-12T21:53:56.743Z,20.70
2018-09-12T21:56:24.504Z,20.60
2018-09-12T21:58:52.406Z,20.60
2018-09-12T22:01:23.452Z,20.40
2018-09-12T22:03:52.143Z,20.30
2018-09-12T22:06:20.409Z,20.00
2018-09-12T22:08:48.364Z,19.90
2018-09-12T22:11:16.363Z,19.80
2018-09-12T22:13:44.118Z,19.70
2018-09-12T22:16:11.883Z,19.50
2018-09-12T22:18:39.644Z,19.60
2018-09-12T22:21:07.458Z,19.60
2018-09-12T22:23:35.251Z,19.50
2018-09-12T22:26:03.035Z,19.40
2018-09-12T22:28:31.269Z,19.30
2018-09-12T22:30:59.124Z,19.30
2018-09-12T22:33:27.172Z,19.20
2018-09-12T22:35:55.000Z,19.20
2018-09-12T22:38:23.282Z,19.00
2018-09-12T22:40:51.002Z,18.80
2018-09-12T22:43:18.730Z,18.80
2018-09-12T22:45:46.660Z,18.90
2018-09-12T22:48:14.579Z,18.90
2018-09-12T22:50:42.392Z,18.80
2018-09-12T22:53:10.218Z,18.60
2018-09-12T22:55:38.031Z,18.50
2018-09-12T22:58:05.888Z,18.50
2018-09-12T23:00:33.755Z,18.50
2018-09-12T23:03:01.620Z,18.40
2018-09-12T23:05:29.366Z,18.30
2018-09-12T23:07:57.295Z,18.30
2018-09-12T23:10:25.035Z,18.20
2018-09-12T23:12:52.806Z,18.10
2018-09-12T23:15:20.597Z,17.90
2018-09-12T23:17:48.340Z,17.80
2018-09-12T23:20:16.060Z,17.70
2018-09-12T23:22:43.851Z,17.90
2018-09-12T23:25:11.588Z,17.90
2018-09-12T23:27:39.369Z,17.90
2018-09-12T23:30:07.278Z,17.90
2018-09-12T23:32:35.032Z,18.10
2018-09-12T23:35:02.865Z,18.10
2018-09-12T23:37:30.630Z,18.00
2018-09-12T23:39:59.119Z,17.90
2018-09-12T23:42:27.119Z,17.80
2018-09-12T23:44:55.938Z,17.60
2018-09-12T23:47:23.831Z,17.60
2018-09-12T23:49:51.700Z,17.60
2018-09-12T23:52:19.516Z,17.70
2018-09-12T23:54:47.276Z,17.70
2018-09-12T23:57:15.157Z,17.80
2018-09-12T23:59:43.031Z,17.60
